createdAt,value
2022-07-27T00:07:57.587Z,25.6
2022-07-27T00:21:57.611Z,25.2
2022-07-27T00:35:57.657Z,24.6
2022-07-27T00:49:57.621Z,24.5
2022-07-27T01:03:57.617Z,24.3
2022-07-27T01:17:57.646Z,24.1
2022-07-27T01:31:57.683Z,23.7
2022-07-27T01:45:57.738Z,23.2
2022-07-27T01:59:57.967Z,22.9
2022-07-27T02:13:57.980Z,22.9
2022-07-27T02:27:58.014Z,22.4
2022-07-27T02:41:58.010Z,22.7
2022-07-27T02:55:58.005Z,22.9
2022-07-27T03:09:58.013Z,23.1
2022-07-27T03:23:58.099Z,22.8
2022-07-27T03:37:58.230Z,22.6
2022-07-27T03:51:58.422Z,23.1
2022-07-27T04:06:58.276Z,22.5
2022-07-27T04:21:58.326Z,22.3
2022-07-27T04:36:58.287Z,22.5
2022-07-27T04:51:58.648Z,22.5
2022-07-27T05:06:58.304Z,22.3
2022-07-27T05:21:58.333Z,22.5
2022-07-27T05:37:58.349Z,22.7
2022-07-27T05:52:58.333Z,23.4
2022-07-27T06:07:58.361Z,23.8
2022-07-27T06:22:58.380Z,24.1
2022-07-27T06:37:58.412Z,24.8
2022-07-27T06:52:58.526Z,25.2
2022-07-27T07:07:58.736Z,26.7
2022-07-27T07:22:58.586Z,27.1
2022-07-27T07:37:58.584Z,27.9
2022-07-27T07:52:58.593Z,29.7
2022-07-27T08:07:58.607Z,29.6
2022-07-27T08:22:58.774Z,29.7
2022-07-27T08:37:58.801Z,30.5
2022-07-27T08:52:58.821Z,29.7
2022-07-27T09:07:58.910Z,30.6
2022-07-27T09:22:58.849Z,29.9
2022-07-27T09:39:02.426Z,30.4
2022-07-27T09:54:58.849Z,31.4
2022-07-27T10:09:58.870Z,30.8
2022-07-27T10:24:59.006Z,31.2
2022-07-27T10:39:58.980Z,30.8
2022-07-27T10:53:02.590Z,31.1
2022-07-27T11:08:35.154Z,32.2
2022-07-27T11:23:48.551Z,33.1
2022-07-27T11:38:03.016Z,33.2
2022-07-27T11:53:03.447Z,33.4
2022-07-27T12:09:03.606Z,33.8
2022-07-27T12:24:03.733Z,34.7
2022-07-27T12:39:03.838Z,34.0
2022-07-27T12:55:03.961Z,33.9
2022-07-27T13:10:04.467Z,34.0
2022-07-27T13:25:04.073Z,33.9
2022-07-27T13:40:04.116Z,34.5
2022-07-27T13:55:04.113Z,34.7
2022-07-27T14:10:04.098Z,35.2
2022-07-27T14:25:04.331Z,34.0
2022-07-27T14:40:04.312Z,34.0
2022-07-27T14:55:04.299Z,34.5
2022-07-27T15:10:04.342Z,34.6
2022-07-27T15:25:04.371Z,33.9
2022-07-27T15:40:04.583Z,33.4
2022-07-27T15:55:04.364Z,32.2
2022-07-27T16:02:48.110Z,32.8
2022-07-27T16:17:48.189Z,32.7
2022-07-27T16:32:48.217Z,33.2
2022-07-27T16:47:48.220Z,33.4
2022-07-27T17:02:48.224Z,32.3
2022-07-27T17:17:48.213Z,31.8
2022-07-27T17:33:48.194Z,30.7
2022-07-27T17:48:48.260Z,30.0
2022-07-27T18:03:48.429Z,29.2
2022-07-27T18:18:48.721Z,28.7
2022-07-27T18:33:48.758Z,28.1
2022-07-27T18:51:00.561Z,27.2
2022-07-27T19:00:05.140Z,27.1
2022-07-27T19:15:05.624Z,27.0
2022-07-27T19:29:05.833Z,27.2
2022-07-27T19:43:06.059Z,26.9
2022-07-27T19:57:05.682Z,26.9
2022-07-27T20:11:05.743Z,27.1
2022-07-27T20:25:06.213Z,27.1
2022-07-27T20:39:06.697Z,26.9
2022-07-27T20:53:06.591Z,26.9
2022-07-27T21:07:06.240Z,27.0
2022-07-27T21:21:06.303Z,27.0
2022-07-27T21:35:07.040Z,26.8
2022-07-27T21:49:06.531Z,26.7
2022-07-27T22:03:06.764Z,26.8
2022-07-27T22:17:06.413Z,25.8
2022-07-27T22:31:20.992Z,24.0
2022-07-27T22:45:06.415Z,23.4
2022-07-27T22:59:06.420Z,23.1
2022-07-27T23:13:06.458Z,23.0
2022-07-27T23:27:06.863Z,24.2
2022-07-27T23:41:06.597Z,24.6
2022-07-27T23:55:06.592Z,24.8
